Welcome to Northern Hawkes Bay. New Zealand.
PWS Header
      nz Flag



Hit Counter


W3C Valid W3C Valid logo


    Wairoa

Select any of the Stations below to visit their websites.










Historic Data from Weather Underground
Select the location of interest below. Wairoa is the default. Please have patience, this Data is slow to load in.
Northern Hawkes Bay Historical Data
Daily Summary for April 10, 2017 Units:  English    Metric   Both
« Previous Day
Next Day »
Daily Weekly Monthly Yearly Custom
  High: Low: Average:
Temperature: 81.1 °F 50 °F 61.2 °F
Dew Point: 62.6 °F 49.6 °F 55.9 °F
Humidity: 99% 47% 84%
Wind Speed: 6.9mph 0mph 1.8mph
Wind Gust: 13mph - -
Wind- - SSW
Pressure: 30.3 in 30.2 in -
Precipitation: 0 in    
Historical Graphs
 
 
Tabular Data for April 10, 2017
Time Temperature Dew Point Pressure Wind Wind Speed Wind Gust Humidity Rainfall Rate (Hourly) solar
00:15 53.6 °F 52.9 °F 30.3 in Calm     97% 0 in 0 W/m2
00:21 53.2 °F 52.7 °F 30.3 in Calm     98% 0 in 0 W/m2
00:27 53.1 °F 52.5 °F 30.3 in Calm     98% 0 in 0 W/m2
00:39 52.9 °F 52.3 °F 30.3 in Calm     98% 0 in 0 W/m2
00:45 52.9 °F 52.3 °F 30.3 in Calm     98% 0 in 0 W/m2
00:51 52.7 °F 52.2 °F 30.3 in Calm     98% 0 in 0 W/m2
00:57 52.7 °F 52.2 °F 30.3 in Calm     98% 0 in 0 W/m2
01:03 52.7 °F 52.2 °F 30.3 in Calm     98% 0 in 0 W/m2
01:09 52.7 °F 52.2 °F 30.3 in Calm     98% 0 in 0 W/m2
01:15 52.9 °F 52.3 °F 30.3 in Calm     98% 0 in 0 W/m2
01:21 52.9 °F 52.3 °F 30.3 in NW 1.6 mph 3.1 mph 98% 0 in 0 W/m2
01:27 52.9 °F 52.3 °F 30.3 in Calm   3.1 mph 98% 0 in 0 W/m2
01:33 52.9 °F 52.3 °F 30.3 in Calm     98% 0 in 0 W/m2
01:40 52.9 °F 52.3 °F 30.3 in Calm     98% 0 in 0 W/m2
01:45 52.7 °F 52.2 °F 30.3 in NW 0.7 mph 3.1 mph 98% 0 in 0 W/m2
01:51 52.7 °F 52.2 °F 30.3 in Calm   3.1 mph 98% 0 in 0 W/m2
01:57 52.9 °F 52.3 °F 30.3 in NNW 2.2 mph 3.1 mph 98% 0 in 0 W/m2
02:04 53.1 °F 52.5 °F 30.3 in NW 2.2 mph 3.8 mph 98% 0 in 0 W/m2
02:10 53.1 °F 52.5 °F 30.3 in Calm   3.8 mph 98% 0 in 0 W/m2
02:15 53.1 °F 52.5 °F 30.3 in NNW 3.8 mph 5.4 mph 98% 0 in 0 W/m2
02:21 53.1 °F 52.5 °F 30.3 in NNW 2.2 mph 6.9 mph 98% 0 in 0 W/m2
02:27 52.9 °F 52.3 °F 30.3 in NW 2.2 mph 6.9 mph 98% 0 in 0 W/m2
02:33 52.9 °F 52.3 °F 30.3 in NNW 1.6 mph 5.4 mph 98% 0 in 0 W/m2
02:45 52.7 °F 52.2 °F 30.3 in NNW 2.2 mph 3.8 mph 98% 0 in 0 W/m2
02:51 52.5 °F 52 °F 30.3 in NNW 1.6 mph 3.8 mph 98% 0 in 0 W/m2
02:57 52.3 °F 51.8 °F 30.3 in NNW 1.6 mph 3.1 mph 98% 0 in 0 W/m2
03:03 52.3 °F 51.8 °F 30.3 in NNW 3.1 mph 4.5 mph 98% 0 in 0 W/m2
03:10 52.3 °F 51.8 °F 30.3 in NW 2.2 mph 5.4 mph 98% 0 in 0 W/m2
03:15 52.2 °F 51.6 °F 30.3 in NNW 1.6 mph 4.5 mph 98% 0 in 0 W/m2
03:21 52 °F 51.4 °F 30.3 in North 1.6 mph 4.5 mph 98% 0 in 0 W/m2
03:28 51.8 °F 51.3 °F 30.3 in North 0.7 mph 3.8 mph 98% 0 in 0 W/m2
03:33 51.8 °F 51.3 °F 30.3 in North 1.6 mph 5.4 mph 98% 0 in 0 W/m2
03:40 51.8 °F 51.3 °F 30.3 in North 0.7 mph 5.4 mph 98% 0 in 0 W/m2
03:45 51.8 °F 51.3 °F 30.3 in Calm   3.8 mph 98% 0 in 0 W/m2
03:51 51.8 °F 51.3 °F 30.3 in NW 3.1 mph 4.5 mph 98% 0 in 0 W/m2
03:57 51.8 °F 51.3 °F 30.3 in NW 3.1 mph 5.4 mph 98% 0 in 0 W/m2
04:03 51.8 °F 51.3 °F 30.3 in Calm   4.5 mph 98% 0 in 0 W/m2
04:10 51.8 °F 51.3 °F 30.3 in NNW 2.2 mph 3.8 mph 98% 0 in 0 W/m2
04:15 51.6 °F 51.4 °F 30.3 in Calm   3.1 mph 99% 0 in 0 W/m2
04:21 51.4 °F 51.3 °F 30.3 in Calm   2.2 mph 99% 0 in 0 W/m2
04:23 51.4 °F 51.3 °F 30.3 in Calm   2.2 mph 99% 0 in 0 W/m2
04:30 51.4 °F 51.3 °F 30.3 in NNW 1.6 mph 2.2 mph 99% 0 in 0 W/m2
04:35 51.4 °F 51.3 °F 30.3 in NNW 1.6 mph 3.1 mph 99% 0 in 0 W/m2
04:41 51.3 °F 51.1 °F 30.3 in Calm   3.1 mph 99% 0 in 0 W/m2
04:47 50.9 °F 50.5 °F 30.3 in Calm     99% 0 in 0 W/m2
04:53 50.7 °F 50.5 °F 30.3 in NNW 2.2 mph 3.1 mph 99% 0 in 0 W/m2
05:19 50.7 °F 50.5 °F 30.3 in Calm   3.1 mph 99% 0 in 0 W/m2
05:25 50.7 °F 50.5 °F 30.3 in North 0.7 mph 3.1 mph 99% 0 in 0 W/m2
05:31 50.5 °F 50.4 °F 30.3 in Calm   3.1 mph 99% 0 in 0 W/m2
05:37 50.2 °F 49.8 °F 30.3 in Calm   3.1 mph 99% 0 in 0 W/m2
05:43 50.2 °F 49.8 °F 30.3 in Calm     99% 0 in 0 W/m2
05:49 50.2 °F 49.8 °F 30.3 in NNW 3.1 mph 3.8 mph 99% 0 in 0 W/m2
05:55 50.2 °F 49.8 °F 30.3 in NW 2.2 mph 5.4 mph 99% 0 in 0 W/m2
06:01 50.2 °F 49.8 °F 30.3 in NNW 3.8 mph 6 mph 99% 0 in 0 W/m2
06:07 50.2 °F 49.8 °F 30.3 in NNW 1.6 mph 6 mph 99% 0 in 0 W/m2
06:13 50.2 °F 49.8 °F 30.3 in NNW 1.6 mph 5.4 mph 99% 0 in 0 W/m2
06:19 50 °F 49.6 °F 30.3 in NNW 2.2 mph 4.5 mph 99% 0 in 0 W/m2
06:25 50 °F 49.6 °F 30.3 in North 2.2 mph 6 mph 99% 0 in 0 W/m2
06:31 50.2 °F 49.8 °F 30.3 in North 2.2 mph 6 mph 99% 0 in 1 W/m2
06:37 50.2 °F 49.8 °F 30.3 in NNW 3.8 mph 5.4 mph 99% 0 in 4 W/m2
06:43 50.4 °F 50.2 °F 30.3 in NNW 2.2 mph 5.4 mph 99% 0 in 7 W/m2
06:49 50.4 °F 50.2 °F 30.3 in NNW 2.2 mph 5.4 mph 99% 0 in 11 W/m2
06:55 50.2 °F 49.8 °F 30.3 in North 0.7 mph 4.5 mph 99% 0 in 14 W/m2
07:01 50.2 °F 49.8 °F 30.3 in NNW 3.8 mph 5.4 mph 99% 0 in 35 W/m2
07:07 50.7 °F 50.5 °F 30.3 in North 2.2 mph 5.4 mph 99% 0 in 86 W/m2
07:13 51.4 °F 51.3 °F 30.3 in NNW 3.8 mph 6 mph 99% 0 in 107 W/m2
07:19 51.8 °F 51.3 °F 30.3 in NNW 3.1 mph 6.9 mph 98% 0 in 133 W/m2
07:25 52.5 °F 52 °F 30.3 in North 4.5 mph 6.9 mph 98% 0 in 160 W/m2
07:31 52.9 °F 52.3 °F 30.3 in North 2.2 mph 6.9 mph 98% 0 in 194 W/m2
07:37 52.9 °F 52.3 °F 30.3 in NNW 2.2 mph 6 mph 98% 0 in 90 W/m2
07:43 52.5 °F 52 °F 30.3 in North 2.2 mph 6 mph 98% 0 in 236 W/m2
07:49 53.2 °F 52.7 °F 30.3 in NNW 4.5 mph 6.9 mph 98% 0 in 269 W/m2
07:55 54.5 °F 53.8 °F 30.3 in NNW 1.6 mph 6.9 mph 97% 0 in 275 W/m2
08:01 55.8 °F 54.7 °F 30.3 in Calm   6 mph 96% 0 in 283 W/m2
08:13 57.2 °F 53.8 °F 30.3 in NW 5.4 mph 6.9 mph 88% 0 in 294 W/m2
08:19 57.6 °F 53.8 °F 30.3 in NNW 3.1 mph 6.9 mph 87% 0 in 296 W/m2
08:25 58.1 °F 54.3 °F 30.3 in NNW 4.5 mph 6.9 mph 87% 0 in 303 W/m2
08:31 58.1 °F 54 °F 30.3 in NNW 4.5 mph 7.6 mph 86% 0 in 311 W/m2
08:37 58.8 °F 55 °F 30.3 in NNW 3.1 mph 7.6 mph 87% 0 in 325 W/m2
08:43 59.4 °F 54.5 °F 30.3 in North 1.6 mph 6 mph 84% 0 in 335 W/m2
08:49 59.9 °F 54.7 °F 30.3 in NNW 4.5 mph 6 mph 83% 0 in 344 W/m2
08:55 59.5 °F 54.3 °F 30.3 in NNW 3.1 mph 6.9 mph 83% 0 in 350 W/m2
09:01 60.1 °F 55.2 °F 30.3 in North 2.2 mph 6.9 mph 84% 0 in 359 W/m2
09:13 62.2 °F 56.5 °F 30.3 in Calm   3.8 mph 81% 0 in 371 W/m2
09:20 62.6 °F 55.2 °F 30.3 in NNW 1.6 mph 5.4 mph 77% 0 in 375 W/m2
09:25 62.8 °F 55.6 °F 30.3 in NNW 0.7 mph 5.4 mph 77% 0 in 141 W/m2
09:32 64.4 °F 57.7 °F 30.3 in Calm   5.4 mph 79% 0 in 346 W/m2
09:37 65.1 °F 57.4 °F 30.3 in Calm   3.8 mph 76% 0 in 175 W/m2
09:43 65.1 °F 57.7 °F 30.3 in Calm   3.8 mph 77% 0 in 90 W/m2
09:49 66 °F 58.3 °F 30.3 in Calm   3.8 mph 76% 0 in 68 W/m2
09:55 66.4 °F 57.6 °F 30.3 in Calm   3.8 mph 73% 0 in 64 W/m2
10:01 67.3 °F 58.5 °F 30.3 in Calm   3.8 mph 73% 0 in 62 W/m2
10:07 68.2 °F 57.6 °F 30.3 in Calm   1.6 mph 69% 0 in 62 W/m2
10:13 70 °F 59 °F 30.3 in Calm   1.6 mph 68% 0 in 68 W/m2
10:19 70.2 °F 57.4 °F 30.3 in Calm   1.6 mph 64% 0 in 85 W/m2
10:25 71.2 °F 58.5 °F 30.3 in Calm   1.6 mph 64% 0 in 132 W/m2
10:31 70 °F 57.4 °F 30.3 in South 3.8 mph 6.9 mph 64% 0 in 134 W/m2
10:37 68.4 °F 57.7 °F 30.3 in South 4.5 mph 6.9 mph 69% 0 in 160 W/m2
10:43 68 °F 58.3 °F 30.3 in SE 3.1 mph 6 mph 71% 0 in 459 W/m2
10:50 68 °F 57.9 °F 30.3 in SE 3.8 mph 6.9 mph 70% 0 in 81 W/m2
10:55 67.1 °F 57.4 °F 30.3 in SE 3.1 mph 6.9 mph 71% 0 in 83 W/m2
11:01 66.7 °F 58.3 °F 30.3 in ESE 3.1 mph 6.9 mph 74% 0 in 103 W/m2
11:07 66.6 °F 57.7 °F 30.3 in ESE 3.1 mph 6.9 mph 73% 0 in 112 W/m2
11:13 66.2 °F 58.1 °F 30.3 in SE 4.5 mph 7.6 mph 75% 0 in 351 W/m2
11:35 67.3 °F 58.6 °F 30.3 in SE 3.1 mph 7.6 mph 74% 0 in 517 W/m2
11:41 67.1 °F 59.4 °F 30.3 in SE 2.2 mph 6.9 mph 76% 0 in 504 W/m2
11:47 67.5 °F 59.4 °F 30.3 in SSE 3.8 mph 8.3 mph 75% 0 in 513 W/m2
11:53 66.9 °F 59.2 °F 30.3 in SSE 3.1 mph 8.3 mph 76% 0 in 525 W/m2
11:59 67.6 °F 59.7 °F 30.3 in SSE 1.6 mph 8.3 mph 76% 0 in 533 W/m2
12:05 68 °F 59.7 °F 30.3 in SSE 4.5 mph 6.9 mph 75% 0 in 546 W/m2
12:11 68.2 °F 59.5 °F 30.3 in SSE 4.5 mph 8.3 mph 74% 0 in 503 W/m2
12:17 67.5 °F 59.7 °F 30.3 in SSE 3.8 mph 9.2 mph 76% 0 in 533 W/m2
12:23 68.4 °F 60.4 °F 30.3 in SSE 1.6 mph 9.2 mph 76% 0 in 549 W/m2
12:29 69.1 °F 60.4 °F 30.3 in SSE 5.4 mph 7.6 mph 74% 0 in 525 W/m2
12:35 69.3 °F 60.6 °F 30.3 in SE 6 mph 9.2 mph 74% 0 in 530 W/m2
12:41 68.2 °F 60.1 °F 30.3 in South 5.4 mph 11.4 mph 75% 0 in 195 W/m2
12:47 68.7 °F 61.2 °F 30.3 in Calm   11.4 mph 77% 0 in 588 W/m2
12:53 70.3 °F 61 °F 30.3 in SSE 3.1 mph 8.3 mph 72% 0 in 589 W/m2
12:59 69.8 °F 60.8 °F 30.3 in South 4.5 mph 8.3 mph 73% 0 in 467 W/m2
13:05 69.4 °F 60.8 °F 30.3 in South 4.5 mph 7.6 mph 74% 0 in 413 W/m2
13:11 69.6 °F 61 °F 30.3 in SSW 3.1 mph 7.6 mph 74% 0 in 269 W/m2
13:17 71.2 °F 62.6 °F 30.3 in SSW 4.5 mph 7.6 mph 74% 0 in 486 W/m2
13:23 70 °F 61 °F 30.3 in SSW 5.4 mph 8.3 mph 73% 0 in 403 W/m2
13:29 69.8 °F 61.2 °F 30.3 in SSW 3.8 mph 9.2 mph 74% 0 in 381 W/m2
13:35 69.6 °F 61 °F 30.3 in SSW 5.4 mph 9.2 mph 74% 0 in 352 W/m2
13:41 69.4 °F 61.2 °F 30.3 in South 3.8 mph 9.2 mph 75% 0 in 452 W/m2
13:47 69.4 °F 61.5 °F 30.3 in South 4.5 mph 8.3 mph 76% 0 in 423 W/m2
13:53 70.2 °F 61.9 °F 30.3 in South 5.4 mph 8.3 mph 75% 0 in 437 W/m2
13:59 70.2 °F 61.5 °F 30.3 in SSW 3.8 mph 7.6 mph 74% 0 in 402 W/m2
14:05 70.3 °F 62.1 °F 30.3 in South 4.5 mph 9.2 mph 75% 0 in 389 W/m2
14:11 71.2 °F 61.9 °F 30.3 in South 5.4 mph 9.2 mph 72% 0 in 335 W/m2
14:17 71.6 °F 61.7 °F 30.3 in South 3.1 mph 7.6 mph 71% 0 in 262 W/m2
14:23 72.9 °F 61.7 °F 30.2 in SSE 4.5 mph 9.2 mph 68% 0 in 88 W/m2
14:29 74.1 °F 61.5 °F 30.2 in SE 3.8 mph 9.2 mph 65% 0 in 68 W/m2
14:35 73.9 °F 61 °F 30.2 in SSE 4.5 mph 10.7 mph 64% 0 in 68 W/m2
14:41 74.1 °F 60.8 °F 30.2 in SSE 3.1 mph 10.7 mph 63% 0 in 69 W/m2
14:47 74.7 °F 61.3 °F 30.2 in Calm   6.9 mph 63% 0 in 69 W/m2
15:01 75.6 °F 60.3 °F 30.2 in SE 5.4 mph 6.9 mph 59% 0 in 264 W/m2
15:07 76.1 °F 60.8 °F 30.2 in SSE 1.6 mph 6 mph 59% 0 in 317 W/m2
15:13 76.8 °F 61 °F 30.2 in SSE 5.4 mph 6.9 mph 58% 0 in 308 W/m2
15:19 77.2 °F 60.3 °F 30.2 in SSE 2.2 mph 6.9 mph 56% 0 in 295 W/m2
15:25 78.4 °F 60.4 °F 30.2 in SE 3.1 mph 5.4 mph 54% 0 in 281 W/m2
15:31 79.5 °F 60.4 °F 30.2 in Calm   4.5 mph 52% 0 in 267 W/m2
15:37 81.1 °F 59 °F 30.2 in ENE 3.1 mph 3.8 mph 47% 0 in 253 W/m2
15:43 78.1 °F 58.5 °F 30.2 in NE 4.5 mph 13 mph 51% 0 in 264 W/m2
15:49 75.2 °F 58.5 °F 30.2 in ENE 6.9 mph 13 mph 56% 0 in 257 W/m2
15:55 73.6 °F 58.8 °F 30.2 in East 4.5 mph 11.4 mph 60% 0 in 222 W/m2
16:01 73.4 °F 58.6 °F 30.2 in East 4.5 mph 9.2 mph 60% 0 in 191 W/m2
16:07 75 °F 59.4 °F 30.2 in ENE 3.1 mph 6.9 mph 58% 0 in 144 W/m2
16:13 75 °F 58.8 °F 30.2 in NE 3.8 mph 8.3 mph 57% 0 in 148 W/m2
16:20 75.4 °F 58.1 °F 30.2 in NE 4.5 mph 8.3 mph 55% 0 in 133 W/m2
16:25 75.2 °F 57.9 °F 30.2 in NE 6.9 mph 8.3 mph 55% 0 in 122 W/m2
16:31 73.8 °F 58.1 °F 30.2 in NE 6.9 mph 10.7 mph 58% 0 in 106 W/m2
16:37 73.8 °F 58.1 °F 30.2 in NE 2.2 mph 10.7 mph 58% 0 in 94 W/m2
16:43 73.8 °F 58.1 °F 30.2 in NE 3.8 mph 8.3 mph 58% 0 in 83 W/m2
16:50 73 °F 58.5 °F 30.2 in ENE 6 mph 8.3 mph 60% 0 in 69 W/m2
16:55 72.9 °F 58.6 °F 30.2 in ENE 3.8 mph 9.2 mph 61% 0 in 59 W/m2
17:15 72.5 °F 58.3 °F 30.2 in NE 3.8 mph 6.9 mph 61% 0 in 34 W/m2
17:21 71.8 °F 57.6 °F 30.2 in NE 0.7 mph 6 mph 61% 0 in 23 W/m2
17:27 69.4 °F 57.2 °F 30.2 in NE 2.2 mph 5.4 mph 65% 0 in 18 W/m2
17:33 68.9 °F 57.6 °F 30.2 in NE 1.6 mph 6 mph 67% 0 in 13 W/m2
17:39 67.6 °F 57.6 °F 30.2 in Calm   6 mph 70% 0 in 10 W/m2
17:45 66.7 °F 57.4 °F 30.2 in Calm   4.5 mph 72% 0 in 6 W/m2
17:51 65.8 °F 57.7 °F 30.2 in Calm   1.6 mph 75% 0 in 2 W/m2
17:57 65.3 °F 57.6 °F 30.2 in Calm   1.6 mph 76% 0 in 0 W/m2
18:03 64.6 °F 57.2 °F 30.2 in Calm   2.2 mph 77% 0 in 0 W/m2
18:10 64 °F 57.4 °F 30.2 in Calm   0.7 mph 79% 0 in 0 W/m2
18:15 63.3 °F 57 °F 30.2 in Calm     80% 0 in 0 W/m2
18:21 63.1 °F 57.2 °F 30.2 in Calm   0.7 mph 81% 0 in 0 W/m2
18:33 62.8 °F 57.2 °F 30.2 in Calm   3.1 mph 82% 0 in 0 W/m2
18:39 62.8 °F 57.2 °F 30.2 in Calm   3.8 mph 82% 0 in 0 W/m2
18:45 62.8 °F 57.2 °F 30.2 in NE 1.6 mph 3.8 mph 82% 0 in 0 W/m2
18:51 63.1 °F 57.6 °F 30.2 in Calm   4.5 mph 82% 0 in 0 W/m2
18:57 63 °F 57.4 °F 30.2 in ENE 0.7 mph 3.8 mph 82% 0 in 0 W/m2
19:03 62.8 °F 57.2 °F 30.2 in Calm   2.2 mph 82% 0 in 0 W/m2
19:09 62.4 °F 57.2 °F 30.2 in Calm   0.7 mph 83% 0 in 0 W/m2
19:15 62.2 °F 57.4 °F 30.2 in Calm     84% 0 in 0 W/m2
19:21 61.9 °F 57 °F 30.2 in Calm     84% 0 in 0 W/m2
19:27 61.7 °F 57.2 °F 30.2 in Calm     85% 0 in 0 W/m2
19:39 61.2 °F 57 °F 30.2 in Calm     86% 0 in 0 W/m2
19:45 61.3 °F 57 °F 30.2 in Calm     86% 0 in 0 W/m2
19:51 61.2 °F 57 °F 30.3 in Calm     86% 0 in 0 W/m2
19:57 61.2 °F 57 °F 30.3 in NW 2.2 mph 3.8 mph 86% 0 in 0 W/m2
20:03 60.3 °F 56.5 °F 30.3 in Calm   3.8 mph 87% 0 in 0 W/m2
20:10 59.9 °F 56.5 °F 30.3 in Calm   3.1 mph 88% 0 in 0 W/m2
20:15 59.7 °F 56.5 °F 30.3 in Calm   3.1 mph 89% 0 in 0 W/m2
20:21 59.9 °F 57.4 °F 30.3 in Calm   3.1 mph 91% 0 in 0 W/m2
20:27 59.9 °F 57.4 °F 30.3 in NNE 1.6 mph 3.1 mph 91% 0 in 0 W/m2
20:33 59.7 °F 57 °F 30.3 in NNE 1.6 mph 3.1 mph 91% 0 in 0 W/m2
20:40 59.9 °F 57.6 °F 30.3 in Calm   3.1 mph 92% 0 in 0 W/m2
20:45 60.1 °F 57.7 °F 30.3 in Calm   5.4 mph 92% 0 in 0 W/m2
20:57 60.8 °F 57.9 °F 30.3 in North 2.2 mph 5.4 mph 90% 0 in 0 W/m2
21:03 60.6 °F 57.7 °F 30.3 in North 1.6 mph 5.4 mph 90% 0 in 0 W/m2
21:10 60.3 °F 57 °F 30.3 in NE 1.6 mph 3.8 mph 89% 0 in 0 W/m2
21:15 60.1 °F 57.2 °F 30.2 in NE 0.7 mph 3.8 mph 90% 0 in 0 W/m2
21:21 60.3 °F 57.4 °F 30.3 in Calm   2.2 mph 90% 0 in 0 W/m2
21:27 60.3 °F 57.4 °F 30.2 in Calm   2.2 mph 90% 0 in 0 W/m2
21:33 60.3 °F 57.4 °F 30.3 in Calm   0.7 mph 90% 0 in 0 W/m2
21:39 60.3 °F 57.4 °F 30.3 in Calm     90% 0 in 0 W/m2
21:45 60.1 °F 56.8 °F 30.3 in Calm     89% 0 in 0 W/m2
21:51 59.5 °F 56.3 °F 30.3 in Calm     89% 0 in 0 W/m2
21:57 59.4 °F 56.1 °F 30.3 in Calm     89% 0 in 0 W/m2
22:03 59.2 °F 56.3 °F 30.3 in Calm     90% 0 in 0 W/m2
22:10 59.2 °F 56.7 °F 30.3 in Calm     91% 0 in 0 W/m2
22:15 58.8 °F 56.5 °F 30.3 in Calm     92% 0 in 0 W/m2
22:21 59 °F 57 °F 30.2 in Calm     93% 0 in 0 W/m2
22:27 59.2 °F 57.2 °F 30.2 in Calm     93% 0 in 0 W/m2
22:33 59.2 °F 57.2 °F 30.2 in NNE 0.7 mph 3.8 mph 93% 0 in 0 W/m2
22:39 59 °F 57 °F 30.2 in Calm   3.8 mph 93% 0 in 0 W/m2
22:45 59.2 °F 57.2 °F 30.2 in Calm   2.2 mph 93% 0 in 0 W/m2
22:51 59.2 °F 57.6 °F 30.2 in NNW 0.7 mph 3.1 mph 94% 0 in 0 W/m2
22:57 59.4 °F 57.6 °F 30.2 in Calm   3.1 mph 94% 0 in 0 W/m2
23:03 59.4 °F 57.6 °F 30.2 in Calm   1.6 mph 94% 0 in 0 W/m2
23:10 59.2 °F 57.2 °F 30.2 in Calm   1.6 mph 93% 0 in 0 W/m2
23:15 59 °F 57 °F 30.2 in Calm     93% 0 in 0 W/m2
23:21 59 °F 57 °F 30.2 in Calm     93% 0 in 0 W/m2
23:27 59 °F 57.4 °F 30.2 in Calm     94% 0 in 0 W/m2
23:33 59 °F 57.4 °F 30.2 in Calm     94% 0 in 0 W/m2
23:39 58.8 °F 57.4 °F 30.2 in Calm     95% 0 in 0 W/m2
23:45 58.6 °F 57.2 °F 30.2 in Calm     95% 0 in 0 W/m2
23:51 58.5 °F 57 °F 30.2 in Calm     95% 0 in 0 W/m2
23:57 58.6 °F 57.2 °F 30.2 in Calm     95% 0 in 0 W/m2
Northern Hawkes Bay. New Zealand Historic Data
Compliments of Weather Underground - 1.75 mb